Xiao'Ergou, China
Current Conditions -  °F | °C
As of 5:30 AM on Tuesday 23 Dec 2014 (Local Time) from UHBB Reporting Station
Clear Clear  
Wind Chill: -20°   Ceiling: Unl
Heat Index: -20°   Visibility: 6mi
Dew Point: -22°   Wind: 2mph
Humidity: 91%   Direction: NA
Pressure: 29.94"   Gusts: NA
Location:  49.2°N, 123.72°E
Report Text: UHBB 222130Z VRB01MPS CAVOK M29/M30 Q1014 NOSIG RMK QFE743/099036410250
Loading
Personal Weather Stations






























Interactive Weather Map New forecast layout! Learn more

10-Day Weather Forecast

Advertisements
Track Severe Weather on mobile